Time;durP1;ratioP1;P1;durP2;ratioP2;P2;SDS_P1;SDS_P2;PMS_P1;PMS_P2;Temp;Humidity;BMP_temperature;BMP_pressure;BME280_temperature;BME280_humidity;BME280_pressure;Samples;Min_cycle;Max_cycle;Signal;HPM_P1;HPM_P2
2021/11/03 00:02:19;;;;;;;5.93;4.75;;;6.20;40.40;;;;;;5127069;27;20050;-69
2021/11/03 00:04:48;;;;;;;6.20;4.47;;;6.10;40.80;;;;;;5129967;27;20099;-68
2021/11/03 00:07:21;;;;;;;7.37;5.13;;;6.10;40.30;;;;;;5131301;27;20051;-68
2021/11/03 00:09:51;;;;;;;7.38;4.68;;;6.00;39.80;;;;;;5125574;27;20067;-67
2021/11/03 00:12:19;;;;;;;5.60;4.15;;;6.00;40.50;;;;;;5123401;27;20159;-68
2021/11/03 00:14:52;;;;;;;6.25;4.75;;;6.10;40.40;;;;;;5124821;27;20498;-68
2021/11/03 00:17:20;;;;;;;6.00;4.38;;;6.10;39.80;;;;;;5127550;27;20105;-68
2021/11/03 00:19:48;;;;;;;5.70;4.22;;;6.10;39.00;;;;;;5129660;27;20149;-68
2021/11/03 00:22:18;;;;;;;8.48;5.00;;;6.20;38.90;;;;;;5119840;27;20108;-67
2021/11/03 00:24:52;;;;;;;8.75;4.75;;;6.20;38.50;;;;;;5126446;27;20067;-67
2021/11/03 00:27:21;;;;;;;7.20;4.60;;;6.30;38.00;;;;;;5126577;27;20051;-68
2021/11/03 00:29:51;;;;;;;9.18;4.72;;;6.30;37.80;;;;;;5127589;27;20067;-68
2021/11/03 00:32:24;;;;;;;8.90;5.50;;;6.30;37.50;;;;;;5120976;27;20043;-67
2021/11/03 00:34:55;;;;;;;6.35;5.47;;;6.30;37.60;;;;;;5122197;27;20050;-68
2021/11/03 00:37:23;;;;;;;10.15;5.18;;;6.40;37.50;;;;;;5117462;27;20042;-68
2021/11/03 00:39:55;;;;;;;7.80;5.55;;;6.40;36.70;;;;;;5110230;27;20055;-68
2021/11/03 00:42:24;;;;;;;9.10;5.93;;;6.50;36.50;;;;;;5107475;27;20055;-68
2021/11/03 00:44:52;;;;;;;8.57;5.35;;;6.60;35.50;;;;;;5119664;27;20043;-68
2021/11/03 00:47:20;;;;;;;8.60;5.55;;;6.60;35.20;;;;;;5115446;27;20532;-68
2021/11/03 00:49:48;;;;;;;7.57;5.35;;;6.50;35.20;;;;;;5111613;27;20506;-68
2021/11/03 00:52:18;;;;;;;7.10;5.40;;;6.50;35.10;;;;;;5110374;27;20519;-68
2021/11/03 00:54:50;;;;;;;7.80;5.30;;;6.60;35.10;;;;;;5117035;27;20064;-67
2021/11/03 00:57:20;;;;;;;6.60;5.50;;;6.60;33.00;;;;;;5116524;27;20055;-68
2021/11/03 00:59:51;;;;;;;10.68;6.10;;;6.60;32.40;;;;;;5113505;27;20122;-67
2021/11/03 01:02:22;;;;;;;12.25;6.35;;;6.60;32.70;;;;;;5108601;27;20070;-68
2021/11/03 01:04:51;;;;;;;7.70;5.65;;;6.60;33.00;;;;;;5111444;27;20056;-68
2021/11/03 01:07:22;;;;;;;9.00;5.28;;;6.50;33.20;;;;;;5118391;27;20098;-68
2021/11/03 01:09:51;;;;;;;9.75;5.43;;;6.60;33.30;;;;;;5113769;27;20096;-68
2021/11/03 01:12:24;;;;;;;8.80;5.50;;;6.60;33.20;;;;;;5110694;27;20047;-69
2021/11/03 01:14:53;;;;;;;7.28;5.15;;;6.60;32.70;;;;;;5112898;27;20062;-68
2021/11/03 01:17:21;;;;;;;9.50;5.20;;;6.40;34.20;;;;;;5114558;27;20051;-68
2021/11/03 01:19:49;;;;;;;8.98;4.88;;;6.30;35.40;;;;;;5117873;27;20042;-68
2021/11/03 01:22:19;;;;;;;6.50;3.60;;;6.30;35.10;;;;;;5107446;27;20513;-68
2021/11/03 01:24:50;;;;;;;5.68;3.80;;;6.50;35.40;;;;;;5115747;27;20089;-68
2021/11/03 01:27:20;;;;;;;6.60;4.03;;;6.60;34.00;;;;;;5113136;27;20106;-68
2021/11/03 01:29:50;;;;;;;4.35;3.22;;;6.60;33.30;;;;;;5113834;27;20499;-68
2021/11/03 01:32:19;;;;;;;4.78;3.63;;;6.60;34.20;;;;;;5106897;27;20047;-67
2021/11/03 01:34:47;;;;;;;5.03;3.33;;;6.70;35.30;;;;;;5113478;27;20051;-68
2021/11/03 01:37:18;;;;;;;5.55;3.67;;;6.60;34.50;;;;;;5105905;27;20043;-68
2021/11/03 01:39:47;;;;;;;6.80;4.25;;;6.50;35.20;;;;;;5112704;27;20028;-68
2021/11/03 01:42:20;;;;;;;7.57;4.57;;;6.50;36.50;;;;;;5111204;27;20053;-68
2021/11/03 01:44:50;;;;;;;6.45;4.65;;;6.40;35.80;;;;;;5113781;27;20040;-67
2021/11/03 01:47:44;;;;;;;7.97;4.28;;;6.50;36.80;;;;;;5110961;27;20039;-66
2021/11/03 01:50:18;;;;;;;12.73;4.13;;;6.60;36.70;;;;;;5116330;27;20043;-67
2021/11/03 01:52:50;;;;;;;5.07;3.88;;;6.50;37.50;;;;;;5106649;27;20040;-67
2021/11/03 01:55:20;;;;;;;6.05;3.08;;;6.40;37.70;;;;;;5109668;27;20384;-69
2021/11/03 01:57:58;;;;;;;4.88;3.72;;;6.40;37.90;;;;;;5112354;27;20040;-69
2021/11/03 02:00:32;;;;;;;6.18;2.90;;;6.40;39.80;;;;;;5110447;27;20418;-68
2021/11/03 02:03:08;;;;;;;6.07;3.22;;;6.40;39.20;;;;;;5111340;27;20111;-68
2021/11/03 02:05:41;;;;;;;4.30;3.05;;;6.40;40.00;;;;;;5093317;27;20027;-67
2021/11/03 02:08:10;;;;;;;6.28;2.95;;;6.40;40.50;;;;;;5111504;27;20477;-68
2021/11/03 02:10:41;;;;;;;6.15;3.22;;;6.30;41.70;;;;;;5113473;27;20120;-68
2021/11/03 02:13:11;;;;;;;7.63;4.10;;;6.30;41.20;;;;;;5080067;27;20134;-67
2021/11/03 02:15:49;;;;;;;7.70;3.80;;;6.30;41.80;;;;;;5117345;27;20044;-69
2021/11/03 02:18:21;;;;;;;7.57;3.60;;;6.40;42.50;;;;;;5116212;27;20078;-67
2021/11/03 02:20:51;;;;;;;6.07;4.13;;;6.40;43.00;;;;;;5099939;27;20491;-67
2021/11/03 02:23:27;;;;;;;;;;;6.40;42.00;;;;;;5108277;27;20067;-68
2021/11/03 02:26:02;;;;;;;6.35;4.28;;;6.30;42.00;;;;;;5107823;27;19920;-67
2021/11/03 02:28:36;;;;;;;8.27;5.40;;;6.40;43.60;;;;;;5112542;27;20487;-68
2021/11/03 02:31:08;;;;;;;7.55;6.38;;;6.30;44.70;;;;;;5116900;27;20046;-68
2021/11/03 02:33:43;;;;;;;8.50;6.43;;;6.20;45.90;;;;;;5111941;27;20498;-68
2021/11/03 02:36:11;;;;;;;9.75;6.43;;;6.30;47.20;;;;;;5109614;27;20058;-67
2021/11/03 02:38:42;;;;;;;9.10;6.80;;;6.30;47.20;;;;;;5112806;27;20498;-68
2021/11/03 02:41:15;;;;;;;11.60;7.28;;;6.30;47.00;;;;;;5110386;27;20044;-68
2021/11/03 02:43:51;;;;;;;;;;;6.40;46.50;;;;;;5108795;27;20040;-68
2021/11/03 02:46:19;;;;;;;10.13;6.80;;;6.30;46.10;;;;;;5113037;27;20318;-67
2021/11/03 02:48:49;;;;;;;8.82;6.20;;;6.30;46.50;;;;;;5112592;27;20035;-67
2021/11/03 02:51:21;;;;;;;10.68;6.30;;;6.30;47.10;;;;;;5109724;27;20045;-67
2021/11/03 02:53:57;;;;;;;10.10;6.03;;;6.30;46.60;;;;;;5110545;27;20575;-67
2021/11/03 02:56:35;;;;;;;8.52;5.43;;;6.30;47.50;;;;;;5113515;27;20114;-67
2021/11/03 02:59:09;;;;;;;7.43;5.00;;;6.30;46.30;;;;;;5116740;27;20046;-67
2021/11/03 03:01:41;;;;;;;5.65;4.60;;;6.30;46.30;;;;;;5113462;27;20087;-67
2021/11/03 03:04:13;;;;;;;6.05;4.38;;;6.30;47.30;;;;;;5106744;27;20047;-67
2021/11/03 03:06:42;;;;;;;5.75;4.70;;;6.40;47.50;;;;;;5110423;27;20090;-67
2021/11/03 03:09:12;;;;;;;5.20;3.88;;;6.30;46.20;;;;;;5112185;27;20045;-68
2021/11/03 03:11:50;;;;;;;8.32;4.13;;;6.30;47.70;;;;;;5113756;27;20053;-68
2021/11/03 03:14:25;;;;;;;4.90;4.28;;;6.30;48.30;;;;;;5110237;27;20035;-68
2021/11/03 03:16:53;;;;;;;5.30;3.70;;;6.30;48.60;;;;;;5109675;27;20035;-68
2021/11/03 03:19:24;;;;;;;6.65;4.13;;;6.40;48.70;;;;;;5110591;27;20032;-68
2021/11/03 03:21:53;;;;;;;8.25;3.70;;;6.40;48.40;;;;;;5104572;27;20464;-68
2021/11/03 03:24:25;;;;;;;6.10;4.32;;;6.30;48.30;;;;;;5114217;27;20044;-69
2021/11/03 03:26:58;;;;;;;4.25;3.63;;;6.30;47.60;;;;;;5108075;27;20051;-68
2021/11/03 03:29:33;;;;;;;4.65;3.28;;;6.40;49.50;;;;;;5113626;27;20050;-67
2021/11/03 03:32:06;;;;;;;3.95;2.80;;;6.40;49.60;;;;;;5106901;27;20724;-68
2021/11/03 03:34:36;;;;;;;3.65;2.85;;;6.40;48.80;;;;;;5110694;27;20055;-67
2021/11/03 03:37:05;;;;;;;4.75;2.45;;;6.50;47.30;;;;;;5111635;27;20063;-68
2021/11/03 03:39:34;;;;;;;3.58;2.83;;;6.50;47.50;;;;;;5112455;27;20047;-67
2021/11/03 03:42:07;;;;;;;6.78;2.72;;;6.50;46.60;;;;;;5104281;27;20062;-67
2021/11/03 03:44:36;;;;;;;4.43;2.58;;;6.60;46.60;;;;;;5111282;27;20434;-67
2021/11/03 03:47:05;;;;;;;3.38;2.50;;;6.60;47.00;;;;;;5108260;27;20509;-67
2021/11/03 03:49:34;;;;;;;3.15;2.17;;;6.50;47.10;;;;;;5113068;27;20078;-67
2021/11/03 03:52:09;;;;;;;4.68;2.50;;;6.50;47.60;;;;;;5087790;27;20159;-67
2021/11/03 03:54:41;;;;;;;8.43;2.90;;;6.40;48.00;;;;;;5105404;27;20105;-67
2021/11/03 03:57:11;;;;;;;4.95;2.72;;;6.50;48.30;;;;;;5109119;27;20126;-68
2021/11/03 03:59:42;;;;;;;6.43;2.60;;;6.40;48.50;;;;;;5089173;27;20043;-67
2021/11/03 04:02:11;;;;;;;3.75;2.65;;;6.40;48.90;;;;;;5112669;27;20047;-68
2021/11/03 04:04:39;;;;;;;3.25;2.60;;;6.40;48.90;;;;;;5108087;27;20057;-68
2021/11/03 04:07:09;;;;;;;4.50;2.78;;;6.30;49.60;;;;;;5109959;27;20106;-68
2021/11/03 04:09:40;;;;;;;6.72;3.55;;;6.30;50.30;;;;;;5112677;27;20097;-68
2021/11/03 04:12:11;;;;;;;9.02;3.03;;;6.40;51.30;;;;;;5112732;27;20735;-67
2021/11/03 04:14:40;;;;;;;5.88;3.33;;;6.40;51.20;;;;;;5119471;27;20036;-68
2021/11/03 04:17:11;;;;;;;3.53;2.90;;;6.30;50.00;;;;;;5115557;27;20040;-68
2021/11/03 04:19:39;;;;;;;5.32;3.28;;;6.30;49.70;;;;;;5112829;27;20109;-67
2021/11/03 04:22:10;;;;;;;5.57;3.42;;;6.40;51.10;;;;;;5114808;27;20105;-67
2021/11/03 04:24:42;;;;;;;6.20;3.35;;;6.40;50.50;;;;;;5116667;27;20089;-67
2021/11/03 04:27:12;;;;;;;5.72;3.80;;;6.30;50.20;;;;;;5114747;27;20054;-67
2021/11/03 04:29:45;;;;;;;4.53;3.17;;;6.30;50.70;;;;;;5098819;27;20043;-67
2021/11/03 04:32:18;;;;;;;5.72;3.40;;;6.30;51.90;;;;;;5114500;27;20048;-67
2021/11/03 04:34:47;;;;;;;5.93;3.40;;;6.40;51.50;;;;;;5109051;27;20122;-68
2021/11/03 04:37:16;;;;;;;8.38;3.90;;;6.40;51.50;;;;;;5111237;27;20055;-68
2021/11/03 04:39:46;;;;;;;7.57;4.07;;;6.40;51.40;;;;;;5111930;27;20141;-68
2021/11/03 04:42:20;;;;;;;5.85;3.40;;;6.40;51.40;;;;;;5107659;27;20051;-68
2021/11/03 04:44:50;;;;;;;6.78;4.22;;;6.50;51.40;;;;;;5113670;27;20044;-67
2021/11/03 04:47:19;;;;;;;7.80;3.60;;;6.50;50.90;;;;;;5120987;27;21158;-68
2021/11/03 04:49:51;;;;;;;4.95;3.83;;;6.50;50.50;;;;;;5119782;27;20506;-67
2021/11/03 04:52:20;;;;;;;6.63;4.10;;;6.50;50.90;;;;;;5117523;27;20104;-68
2021/11/03 04:54:49;;;;;;;5.50;4.20;;;6.60;51.50;;;;;;5122076;27;20093;-68
2021/11/03 04:57:21;;;;;;;6.72;4.35;;;6.50;50.20;;;;;;5149348;27;20086;-67
2021/11/03 04:59:50;;;;;;;5.45;3.80;;;6.40;51.20;;;;;;5140850;27;20039;-67
2021/11/03 05:02:22;;;;;;;8.50;4.93;;;6.50;51.50;;;;;;5123759;27;20124;-68
2021/11/03 05:04:50;;;;;;;9.40;4.28;;;6.50;51.50;;;;;;5144577;27;20034;-68
2021/11/03 05:07:23;;;;;;;5.97;4.38;;;6.50;51.50;;;;;;5149513;27;20034;-68
2021/11/03 05:09:55;;;;;;;5.82;4.28;;;6.50;51.50;;;;;;5151267;27;20039;-68
2021/11/03 05:12:26;;;;;;;5.45;3.85;;;6.50;50.80;;;;;;5143410;27;20050;-68
2021/11/03 05:14:54;;;;;;;9.40;4.15;;;6.60;50.90;;;;;;5149005;27;20042;-67
2021/11/03 05:17:23;;;;;;;6.95;4.80;;;6.60;49.90;;;;;;5149667;27;20063;-68
2021/11/03 05:19:55;;;;;;;8.45;5.00;;;6.50;49.50;;;;;;5129271;27;20103;-68
2021/11/03 05:22:25;;;;;;;5.82;4.38;;;6.50;49.70;;;;;;5150736;27;20043;-68
2021/11/03 05:24:53;;;;;;;7.18;5.22;;;6.60;49.70;;;;;;5146360;27;20458;-67
2021/11/03 05:27:28;;;;;;;8.30;4.95;;;6.50;49.20;;;;;;5147499;27;20039;-67
2021/11/03 05:30:00;;;;;;;7.38;4.88;;;6.60;49.50;;;;;;5137378;27;20038;-67
2021/11/03 05:32:28;;;;;;;7.40;4.32;;;6.60;49.00;;;;;;5141079;27;20134;-67
2021/11/03 05:34:59;;;;;;;8.13;5.18;;;6.70;48.20;;;;;;5136675;27;20046;-67
2021/11/03 05:37:28;;;;;;;5.97;4.20;;;6.70;47.90;;;;;;5134882;27;21546;-67
2021/11/03 05:39:57;;;;;;;6.72;4.20;;;6.70;47.20;;;;;;5124876;27;20039;-67
2021/11/03 05:42:28;;;;;;;6.78;3.88;;;6.80;47.10;;;;;;5125679;27;20632;-67
2021/11/03 05:44:58;;;;;;;8.10;4.95;;;6.70;46.70;;;;;;5121970;27;20089;-68
2021/11/03 05:47:29;;;;;;;6.50;3.95;;;6.80;47.10;;;;;;5125266;27;21828;-67
2021/11/03 05:50:00;;;;;;;4.60;3.40;;;6.80;45.80;;;;;;5137628;27;20505;-67
2021/11/03 05:52:29;;;;;;;6.25;3.67;;;6.80;45.40;;;;;;5122266;27;20494;-67
2021/11/03 05:55:02;;;;;;;6.05;3.47;;;6.80;45.20;;;;;;5079715;27;20104;-68
2021/11/03 05:57:39;;;;;;;5.20;3.53;;;6.80;45.60;;;;;;5100038;27;20043;-69
2021/11/03 06:00:14;;;;;;;7.07;3.47;;;6.70;45.20;;;;;;5122944;27;20133;-68
2021/11/03 06:02:45;;;;;;;6.43;3.10;;;6.70;45.10;;;;;;5092606;27;20292;-68
2021/11/03 06:05:15;;;;;;;7.63;3.67;;;6.80;45.70;;;;;;5115951;27;20053;-67
2021/11/03 06:07:49;;;;;;;4.55;3.42;;;6.80;46.10;;;;;;5123248;27;20047;-67
2021/11/03 06:10:21;;;;;;;;;;;6.80;45.70;;;;;;5120553;27;20043;-67
2021/11/03 06:12:51;;;;;;;4.63;3.22;;;6.80;45.10;;;;;;5120481;27;19970;-68
2021/11/03 06:15:23;;;;;;;4.55;3.35;;;6.80;45.00;;;;;;5111592;27;20035;-68
2021/11/03 06:17:52;;;;;;;4.75;3.40;;;6.80;46.00;;;;;;5136896;27;20152;-68
2021/11/03 06:20:26;;;;;;;5.18;3.80;;;6.80;45.80;;;;;;5141185;27;20043;-67
2021/11/03 06:22:54;;;;;;;5.25;3.85;;;6.80;44.70;;;;;;5143130;27;20134;-67
2021/11/03 06:25:25;;;;;;;6.32;3.47;;;6.90;42.40;;;;;;5140469;27;20054;-67
2021/11/03 06:27:57;;;;;;;6.80;3.50;;;6.90;41.70;;;;;;5140404;27;20050;-67
2021/11/03 06:30:30;;;;;;;4.93;3.25;;;7.00;41.50;;;;;;5138608;27;20078;-68
2021/11/03 06:33:00;;;;;;;5.22;2.97;;;7.00;41.50;;;;;;5139212;27;20046;-68
2021/11/03 06:35:31;;;;;;;4.32;2.80;;;7.00;42.00;;;;;;5140089;27;20076;-68
2021/11/03 06:38:06;;;;;;;6.47;3.47;;;7.10;41.50;;;;;;5117552;27;20428;-68
2021/11/03 06:40:37;;;;;;;4.90;3.63;;;7.10;40.70;;;;;;5138755;27;20091;-68
2021/11/03 06:43:07;;;;;;;5.95;3.38;;;7.10;41.20;;;;;;5135789;27;20058;-68
2021/11/03 06:45:38;;;;;;;5.53;3.08;;;7.00;41.40;;;;;;5133505;27;20095;-68
2021/11/03 06:48:07;;;;;;;4.97;3.10;;;7.10;40.40;;;;;;5136997;27;20046;-68
2021/11/03 06:50:37;;;;;;;3.40;2.60;;;7.10;40.50;;;;;;5130710;27;20150;-68
2021/11/03 06:53:10;;;;;;;6.88;2.92;;;7.20;38.30;;;;;;5133989;27;20078;-68
2021/11/03 06:55:40;;;;;;;4.82;3.20;;;7.20;38.00;;;;;;5143816;27;20050;-68
2021/11/03 06:58:12;;;;;;;5.53;2.80;;;7.20;37.80;;;;;;5140820;27;20465;-68
2021/11/03 07:00:44;;;;;;;3.90;2.78;;;7.20;38.30;;;;;;5103274;27;20129;-68
2021/11/03 07:03:13;;;;;;;5.20;2.85;;;7.30;38.30;;;;;;5138300;27;20550;-68
2021/11/03 07:05:47;;;;;;;5.75;2.35;;;7.30;37.90;;;;;;5131969;27;20066;-68
2021/11/03 07:08:17;;;;;;;3.17;2.30;;;7.30;37.30;;;;;;5113981;27;20058;-67
2021/11/03 07:10:48;;;;;;;2.63;2.10;;;7.40;34.90;;;;;;5143129;27;20047;-67
2021/11/03 07:13:19;;;;;;;3.30;2.33;;;7.40;31.90;;;;;;5120551;27;20552;-68
2021/11/03 07:15:48;;;;;;;3.28;2.17;;;7.40;32.00;;;;;;5130619;27;20089;-68
2021/11/03 07:18:17;;;;;;;2.33;2.00;;;7.50;29.30;;;;;;5128263;27;20166;-68
2021/11/03 07:20:46;;;;;;;4.43;3.25;;;7.50;28.00;;;;;;5140321;27;20050;-67
2021/11/03 07:23:21;;;;;;;2.88;2.00;;;7.50;29.90;;;;;;5140200;27;20074;-67
2021/11/03 07:25:55;;;;;;;4.15;1.83;;;7.50;28.20;;;;;;5144572;27;20053;-68
2021/11/03 07:28:27;;;;;;;3.80;2.00;;;7.60;28.10;;;;;;5137944;27;20045;-67
2021/11/03 07:30:56;;;;;;;3.17;2.30;;;7.60;28.10;;;;;;5132992;27;20142;-66
2021/11/03 07:33:29;;;;;;;3.67;2.05;;;7.70;26.20;;;;;;5140479;27;20133;-67
2021/11/03 07:36:01;;;;;;;3.55;1.95;;;7.70;28.20;;;;;;5137428;27;20042;-67
2021/11/03 07:38:33;;;;;;;2.25;1.48;;;7.70;28.10;;;;;;5116808;27;20031;-67
2021/11/03 07:41:23;;;;;;;4.93;1.73;;;7.80;24.60;;;;;;5122733;27;20067;-67
2021/11/03 07:44:01;;;;;;;3.72;1.90;;;7.90;26.20;;;;;;5135539;27;20125;-68
2021/11/03 07:46:29;;;;;;;3.42;1.80;;;7.90;28.40;;;;;;5146232;27;20466;-67
2021/11/03 07:48:57;;;;;;;3.83;1.70;;;7.90;24.90;;;;;;5145403;27;20034;-67
2021/11/03 07:51:26;;;;;;;2.17;1.35;;;8.00;23.60;;;;;;5146463;27;20042;-67
2021/11/03 07:53:59;;;;;;;2.15;1.35;;;8.10;18.10;;;;;;5139971;27;20198;-68
2021/11/03 07:56:32;;;;;;;1.75;1.17;;;8.20;16.20;;;;;;5140343;27;20043;-67
2021/11/03 07:59:01;;;;;;;2.28;1.00;;;8.30;14.70;;;;;;5148093;27;20103;-68
2021/11/03 08:01:30;;;;;;;1.27;0.80;;;8.30;11.90;;;;;;5118590;27;20046;-67
2021/11/03 08:04:00;;;;;;;1.73;1.02;;;8.30;12.70;;;;;;5118196;27;20078;-68
2021/11/03 08:06:28;;;;;;;1.73;1.02;;;8.40;11.30;;;;;;5125732;27;20039;-66
2021/11/03 08:09:04;;;;;;;1.20;1.00;;;8.40;11.60;;;;;;5118456;27;20475;-67
2021/11/03 08:11:39;;;;;;;4.30;1.67;;;8.50;10.60;;;;;;5122303;27;20043;-67
2021/11/03 08:14:12;;;;;;;2.22;1.35;;;8.60;8.80;;;;;;5124515;27;20035;-67
2021/11/03 08:16:50;;;;;;;1.98;1.20;;;8.60;9.00;;;;;;5119530;27;20519;-67
2021/11/03 08:19:30;;;;;;;2.20;1.20;;;8.60;9.60;;;;;;5118616;27;20514;-67
2021/11/03 08:22:01;;;;;;;2.92;1.27;;;8.70;9.40;;;;;;5122745;27;20437;-68
2021/11/03 08:24:30;;;;;;;1.80;1.45;;;8.70;8.10;;;;;;5116157;27;20047;-67
2021/11/03 08:27:03;;;;;;;1.30;0.90;;;8.70;7.70;;;;;;5120548;27;20055;-67
2021/11/03 08:29:38;;;;;;;2.88;0.85;;;8.70;8.10;;;;;;5122558;27;20039;-67
2021/11/03 08:32:08;;;;;;;2.58;1.05;;;8.70;7.60;;;;;;5116224;27;20502;-67
2021/11/03 08:34:41;;;;;;;2.78;1.10;;;8.80;6.60;;;;;;5118320;27;20039;-67
2021/11/03 08:37:12;;;;;;;2.13;1.02;;;8.90;5.80;;;;;;5124059;27;20478;-68
2021/11/03 08:39:48;;;;;;;1.92;1.25;;;8.90;4.70;;;;;;5104160;27;20039;-68
2021/11/03 08:42:16;;;;;;;2.90;1.20;;;8.90;4.80;;;;;;5128852;27;20060;-67
2021/11/03 08:44:46;;;;;;;2.25;1.30;;;8.90;5.50;;;;;;5120297;27;20047;-67
2021/11/03 08:47:19;;;;;;;4.65;1.60;;;8.90;7.80;;;;;;5118858;27;20126;-68
2021/11/03 08:49:49;;;;;;;1.85;1.27;;;8.90;8.60;;;;;;5123524;27;20047;-69
2021/11/03 08:52:17;;;;;;;4.40;1.38;;;9.00;7.20;;;;;;5124661;27;20116;-67
2021/11/03 08:54:49;;;;;;;2.25;1.50;;;9.00;8.00;;;;;;5115272;27;20059;-67
2021/11/03 08:57:24;;;;;;;2.97;1.42;;;9.00;9.00;;;;;;5119778;27;20047;-67
2021/11/03 08:59:57;;;;;;;2.80;1.63;;;9.00;9.50;;;;;;5123816;27;20148;-68
2021/11/03 09:02:26;;;;;;;4.75;3.97;;;9.00;8.10;;;;;;5099650;27;20040;-69
2021/11/03 09:05:00;;;;;;;2.65;1.45;;;8.90;8.40;;;;;;5117094;27;20404;-67
2021/11/03 09:07:31;;;;;;;2.35;1.60;;;9.00;8.30;;;;;;5124973;27;20122;-67
2021/11/03 09:09:59;;;;;;;2.80;1.60;;;9.00;10.30;;;;;;5119232;27;20087;-66
2021/11/03 09:12:29;;;;;;;2.97;1.42;;;9.00;9.50;;;;;;5121339;27;20046;-67
2021/11/03 09:14:58;;;;;;;2.03;1.42;;;9.10;8.80;;;;;;5120344;27;20050;-67
2021/11/03 09:17:32;;;;;;;2.67;1.30;;;9.10;9.60;;;;;;5116611;27;20054;-68
2021/11/03 09:20:00;;;;;;;1.73;1.15;;;9.00;5.20;;;;;;5121685;27;20044;-68
2021/11/03 09:22:34;;;;;;;4.38;1.65;;;9.10;7.00;;;;;;5120130;27;20043;-68
2021/11/03 09:25:05;;;;;;;2.65;1.45;;;9.30;8.90;;;;;;5118054;27;20401;-68
2021/11/03 09:27:40;;;;;;;1.65;1.33;;;9.40;7.40;;;;;;5121464;27;20055;-66
2021/11/03 09:30:12;;;;;;;4.35;1.85;;;9.40;5.80;;;;;;5121769;27;20089;-67
2021/11/03 09:32:46;;;;;;;2.40;1.60;;;9.50;7.10;;;;;;5120795;27;20080;-68
2021/11/03 09:35:17;;;;;;;1.90;1.50;;;9.60;7.00;;;;;;5121944;27;20050;-68
2021/11/03 09:37:48;;;;;;;2.25;1.38;;;9.60;5.50;;;;;;5119640;27;20039;-68
2021/11/03 09:40:23;;;;;;;1.42;1.10;;;9.70;4.60;;;;;;5121033;27;20047;-68
2021/11/03 09:42:53;;;;;;;1.35;1.10;;;9.60;2.30;;;;;;5106814;27;20628;-67
2021/11/03 09:45:28;;;;;;;2.35;1.20;;;9.80;2.30;;;;;;5118358;27;20469;-67
2021/11/03 09:48:15;;;;;;;4.30;1.20;;;9.90;2.20;;;;;;5123236;27;20068;-68
2021/11/03 09:50:49;;;;;;;2.30;0.95;;;10.00;1.00;;;;;;5103247;27;20055;-68
2021/11/03 09:53:30;;;;;;;6.38;1.55;;;10.00;1.00;;;;;;5116826;27;20043;-67
2021/11/03 09:56:10;;;;;;;1.83;0.98;;;9.80;1.00;;;;;;5118713;27;20035;-68
2021/11/03 09:59:09;;;;;;;5.40;2.42;;;9.90;1.00;;;;;;5119879;27;20789;-68
2021/11/03 10:01:50;;;;;;;1.75;1.00;;;10.10;1.00;;;;;;5104541;27;20039;-68
2021/11/03 10:04:41;;;;;;;7.80;2.50;;;10.00;1.00;;;;;;5117466;27;20128;-68
2021/11/03 10:07:19;;;;;;;;;;;10.20;1.00;;;;;;5100011;27;20040;-68
2021/11/03 10:09:47;;;;;;;3.22;1.13;;;10.30;1.00;;;;;;5114022;27;19926;-68
2021/11/03 10:12:19;;;;;;;2.53;1.15;;;10.30;1.00;;;;;;5120666;27;20126;-68
2021/11/03 10:14:51;;;;;;;2.83;1.30;;;10.40;1.00;;;;;;5112643;27;20077;-68
2021/11/03 10:17:29;;;;;;;4.53;1.10;;;10.30;1.00;;;;;;5126198;27;20039;-68
2021/11/03 10:19:57;;;;;;;6.80;1.20;;;10.30;1.00;;;;;;5120136;27;20165;-68
2021/11/03 10:22:31;;;;;;;1.55;1.00;;;10.30;1.00;;;;;;5117030;27;20063;-68
2021/11/03 10:25:23;;;;;;;6.13;1.60;;;10.30;1.00;;;;;;5118240;27;20059;-68
2021/11/03 10:27:55;;;;;;;2.58;0.90;;;10.20;1.00;;;;;;5099405;27;20065;-67
2021/11/03 10:30:36;;;;;;;1.77;1.00;;;10.10;1.00;;;;;;5112893;27;20097;-68
2021/11/03 10:33:18;;;;;;;2.50;0.95;;;10.20;1.00;;;;;;5120184;27;20066;-67
2021/11/03 10:35:59;;;;;;;2.55;1.10;;;10.40;1.00;;;;;;5104596;27;20402;-66
2021/11/03 10:38:30;;;;;;;1.95;0.70;;;10.30;1.00;;;;;;5115836;27;20706;-67
2021/11/03 10:41:02;;;;;;;3.72;1.08;;;10.20;1.00;;;;;;5119370;27;20052;-67
2021/11/03 10:43:42;;;;;;;3.07;1.10;;;10.20;1.00;;;;;;5114943;27;20043;-68
2021/11/03 10:46:18;;;;;;;2.40;1.00;;;10.20;1.00;;;;;;5118770;27;20446;-67
2021/11/03 10:52:17;;;;;;;4.40;2.50;;;10.20;1.00;;;;;;5120207;27;20051;-68
2021/11/03 10:54:49;;;;;;;4.70;3.58;;;9.90;11.00;;;;;;5099582;27;20061;-68
2021/11/03 10:57:22;;;;;;;;;;;9.80;14.00;;;;;;5121409;27;20090;-68
2021/11/03 11:00:02;;;;;;;4.97;3.40;;;9.60;15.90;;;;;;5120763;27;19927;-68
2021/11/03 11:02:34;;;;;;;5.45;3.78;;;9.50;18.50;;;;;;5120827;27;20559;-67
2021/11/03 11:05:12;;;;;;;5.97;3.38;;;9.60;17.80;;;;;;5111535;27;20050;-67
2021/11/03 11:07:53;;;;;;;5.68;3.40;;;9.50;17.80;;;;;;5105292;28;20052;-67
2021/11/03 11:10:33;;;;;;;5.50;3.50;;;9.50;16.10;;;;;;5105775;27;20034;-69
2021/11/03 11:13:06;;;;;;;5.90;3.08;;;9.30;15.30;;;;;;5116024;27;20124;-68
2021/11/03 11:15:48;;;;;;;9.80;4.17;;;9.40;18.90;;;;;;5117199;27;20040;-67
2021/11/03 11:18:47;;;;;;;4.80;3.75;;;9.50;18.20;;;;;;5106683;27;20312;-67
2021/11/03 11:21:27;;;;;;;11.15;3.72;;;9.40;18.50;;;;;;5114026;27;20514;-68
2021/11/03 11:23:59;;;;;;;4.72;3.13;;;9.30;17.90;;;;;;5093729;28;20031;-68
2021/11/03 11:26:40;;;;;;;7.15;3.70;;;9.30;17.60;;;;;;5119743;28;20054;-67
2021/11/03 11:29:16;;;;;;;8.50;4.05;;;9.50;18.40;;;;;;5102030;28;20039;-69
2021/11/03 11:31:53;;;;;;;5.47;3.58;;;9.60;18.00;;;;;;5116403;27;20039;-67
2021/11/03 11:34:48;;;;;;;5.63;3.85;;;9.60;17.60;;;;;;5117874;28;20046;-68
2021/11/03 11:37:27;;;;;;;7.78;4.00;;;9.50;17.30;;;;;;5107079;28;20047;-67
2021/11/03 11:40:17;;;;;;;7.28;3.83;;;9.40;17.90;;;;;;5109569;27;20054;-67
2021/11/03 11:42:53;;;;;;;7.93;3.90;;;9.40;17.80;;;;;;5109590;28;20040;-67
2021/11/03 11:45:24;;;;;;;6.55;3.97;;;9.30;15.30;;;;;;5116967;28;20047;-68
2021/11/03 11:47:55;;;;;;;6.00;4.10;;;9.50;16.60;;;;;;5116487;27;20539;-67
2021/11/03 11:50:29;;;;;;;7.53;3.67;;;9.60;16.20;;;;;;5115928;27;20024;-68
2021/11/03 11:53:21;;;;;;;7.15;4.05;;;9.50;16.10;;;;;;5096723;27;20039;-67
2021/11/03 11:56:18;;;;;;;6.72;3.58;;;9.50;15.80;;;;;;5113676;27;20086;-67
2021/11/03 11:58:54;;;;;;;3.78;2.92;;;9.70;14.80;;;;;;5115167;27;20047;-70
2021/11/03 12:01:27;;;;;;;4.68;3.00;;;9.60;14.90;;;;;;5119688;27;20108;-69
2021/11/03 12:04:35;;;;;;;3.88;2.92;;;9.50;14.00;;;;;;5096325;28;20047;-68
2021/11/03 12:07:27;;;;;;;6.38;3.40;;;9.50;13.80;;;;;;5113204;28;20048;-68
2021/11/03 12:10:33;;;;;;;3.40;2.67;;;9.60;14.50;;;;;;5113695;28;20343;-68
2021/11/03 12:13:29;;;;;;;4.50;2.80;;;9.50;15.00;;;;;;5110307;27;20053;-68
2021/11/03 12:16:21;;;;;;;4.28;2.97;;;9.60;15.50;;;;;;5120669;27;20045;-68
2021/11/03 12:18:55;;;;;;;4.47;2.60;;;9.70;13.70;;;;;;5113642;28;20047;-68
2021/11/03 12:21:58;;;;;;;3.50;2.70;;;9.60;11.90;;;;;;5116704;27;20051;-68
2021/11/03 12:24:37;;;;;;;4.05;2.88;;;9.60;14.10;;;;;;5119779;27;20110;-67
2021/11/03 12:27:33;;;;;;;6.85;3.53;;;9.60;13.80;;;;;;5097724;28;20392;-68
2021/11/03 12:30:21;;;;;;;4.72;3.20;;;9.70;15.60;;;;;;5098207;27;20048;-68
2021/11/03 12:32:59;;;;;;;5.30;2.80;;;9.60;14.70;;;;;;5118958;27;20048;-68
2021/11/03 12:36:03;;;;;;;4.40;2.92;;;9.60;12.80;;;;;;5121127;27;20043;-69
2021/11/03 12:38:59;;;;;;;6.32;3.10;;;9.70;14.80;;;;;;5122633;27;20035;-69
2021/11/03 12:41:42;;;;;;;6.03;3.15;;;9.70;14.90;;;;;;5117327;27;20135;-67
2021/11/03 12:44:22;;;;;;;4.53;3.33;;;9.60;16.30;;;;;;5123239;27;20089;-67
2021/11/03 12:46:50;;;;;;;4.55;3.22;;;9.50;17.70;;;;;;5123312;27;20054;-68
2021/11/03 12:49:23;;;;;;;5.65;2.97;;;9.50;17.40;;;;;;5116674;27;20602;-68
2021/11/03 12:51:59;;;;;;;3.92;3.13;;;9.40;17.00;;;;;;5125236;27;20138;-67
2021/11/03 12:54:33;;;;;;;4.45;2.80;;;9.40;18.10;;;;;;5119360;27;20036;-69
2021/11/03 12:57:04;;;;;;;4.75;3.38;;;9.40;17.20;;;;;;5116845;27;20075;-68
2021/11/03 12:59:37;;;;;;;5.57;3.10;;;9.50;17.40;;;;;;5122268;27;20588;-68
2021/11/03 13:02:16;;;;;;;4.85;2.88;;;9.50;17.60;;;;;;5116606;27;20100;-67
2021/11/03 13:04:58;;;;;;;5.60;3.00;;;9.50;17.40;;;;;;5114771;27;20502;-67
2021/11/03 13:07:28;;;;;;;4.57;2.75;;;9.50;16.50;;;;;;5123413;27;20043;-67
2021/11/03 13:10:04;;;;;;;4.57;3.00;;;9.50;16.40;;;;;;5117024;27;20084;-67
2021/11/03 13:12:34;;;;;;;5.07;2.85;;;9.40;15.80;;;;;;5122547;27;20058;-67
2021/11/03 13:15:19;;;;;;;6.00;3.65;;;9.30;15.70;;;;;;5122021;27;20104;-67
2021/11/03 13:17:51;;;;;;;3.67;2.85;;;9.30;18.70;;;;;;5118614;27;20460;-68
2021/11/03 13:20:26;;;;;;;5.47;3.65;;;9.20;18.80;;;;;;5099991;27;20100;-67
2021/11/03 13:22:56;;;;;;;4.43;3.55;;;9.30;21.90;;;;;;5122451;27;20113;-68
2021/11/03 13:25:30;;;;;;;5.50;3.97;;;9.30;22.40;;;;;;5113491;27;20058;-67
2021/11/03 13:28:03;;;;;;;7.50;4.00;;;9.30;25.20;;;;;;5118494;27;20035;-68
2021/11/03 13:30:35;;;;;;;10.80;7.30;;;9.40;26.90;;;;;;5126521;27;20084;-68
2021/11/03 13:33:20;;;;;;;5.75;4.43;;;9.60;27.10;;;;;;5115554;27;20249;-68
2021/11/03 13:35:59;;;;;;;7.05;3.80;;;9.40;27.80;;;;;;5117584;27;20046;-68
2021/11/03 13:38:37;;;;;;;5.50;4.18;;;9.20;27.30;;;;;;5123396;27;20031;-68